Time;durP1;ratioP1;P1;durP2;ratioP2;P2;SDS_P1;SDS_P2;PMS_P1;PMS_P2;Temp;Humidity;BMP_temperature;BMP_pressure;BME280_temperature;BME280_humidity;BME280_pressure;Samples;Min_cycle;Max_cycle;Signal;HPM_P1;HPM_P2
2022/03/28 00:01:34;;;;;;;4.28;3.88;;;;;;;;;;5072518;28;20032;-52
2022/03/28 00:04:00;;;;;;;4.30;3.90;;;;;;;;;;5069698;28;20055;-49
2022/03/28 00:06:26;;;;;;;4.00;3.70;;;;;;;;;;5071664;28;20035;-52
2022/03/28 00:08:51;;;;;;;5.45;4.82;;;;;;;;;;5074506;28;20089;-53
2022/03/28 00:11:17;;;;;;;4.53;4.13;;;;;;;;;;5073681;28;20135;-52
2022/03/28 00:13:44;;;;;;;4.72;4.30;;;;;;;;;;5077040;28;20082;-53
2022/03/28 00:16:10;;;;;;;5.07;4.68;;;;;;;;;;5075684;28;20233;-55
2022/03/28 00:18:35;;;;;;;4.72;4.32;;;;;;;;;;5075957;28;20059;-54
2022/03/28 00:21:00;;;;;;;4.57;4.18;;;;;;;;;;5072323;28;20025;-52
2022/03/28 00:23:26;;;;;;;5.20;4.72;;;;;;;;;;5080711;28;20089;-51
2022/03/28 00:25:51;;;;;;;5.07;4.65;;;;;;;;;;5075505;28;20059;-53
2022/03/28 00:28:17;;;;;;;4.90;4.50;;;;;;;;;;5073259;28;20047;-52
2022/03/28 00:30:46;;;;;;;5.78;4.07;;;;;;;;;;5075342;28;20142;-52
2022/03/28 00:33:11;;;;;;;4.65;4.25;;;;;;;;;;5072201;28;20024;-53
2022/03/28 00:35:36;;;;;;;4.75;4.32;;;;;;;;;;5075111;28;20024;-53
2022/03/28 00:38:03;;;;;;;4.80;4.40;;;;;;;;;;5075821;28;20662;-52
2022/03/28 00:40:31;;;;;;;4.90;4.50;;;;;;;;;;5074547;28;20400;-53
2022/03/28 00:43:03;;;;;;;5.22;4.72;;;;;;;;;;5058671;28;20482;-50
2022/03/28 00:45:32;;;;;;;3.85;3.55;;;;;;;;;;5073285;28;20075;-52
2022/03/28 00:47:58;;;;;;;4.53;4.13;;;;;;;;;;5078367;28;20110;-53
2022/03/28 00:50:24;;;;;;;5.40;5.00;;;;;;;;;;5075825;28;20111;-50
2022/03/28 00:52:50;;;;;;;4.85;4.45;;;;;;;;;;5076133;28;20608;-50
2022/03/28 00:55:15;;;;;;;4.38;3.97;;;;;;;;;;5077646;28;20038;-51
2022/03/28 00:57:41;;;;;;;4.63;4.22;;;;;;;;;;5078608;28;20089;-52
2022/03/28 01:00:10;;;;;;;7.45;4.85;;;;;;;;;;5079457;28;20032;-53
2022/03/28 01:02:36;;;;;;;4.25;3.85;;;;;;;;;;5077901;28;20553;-50
2022/03/28 01:05:02;;;;;;;4.28;3.88;;;;;;;;;;5077807;28;20032;-53
2022/03/28 01:07:27;;;;;;;5.63;4.38;;;;;;;;;;5073242;28;20036;-54
2022/03/28 01:09:55;;;;;;;5.05;4.65;;;;;;;;;;5071892;28;20044;-53
2022/03/28 01:12:30;;;;;;;4.78;4.38;;;;;;;;;;5077326;28;20099;-52
2022/03/28 01:14:55;;;;;;;4.55;4.15;;;;;;;;;;5074067;28;21089;-52
2022/03/28 01:20:06;;;;;;;3.72;3.42;;;;;;;;;;5075011;28;20028;-53
2022/03/28 01:22:32;;;;;;;5.35;4.90;;;;;;;;;;5074359;28;20029;-52
2022/03/28 01:25:00;;;;;;;4.93;4.53;;;;;;;;;;5074640;28;20504;-53
2022/03/28 01:27:25;;;;;;;4.65;4.25;;;;;;;;;;5046818;28;20023;-53
2022/03/28 01:29:51;;;;;;;5.88;4.75;;;;;;;;;;5075066;28;20028;-51
2022/03/28 01:32:16;;;;;;;4.07;3.70;;;;;;;;;;5071291;28;20146;-53
2022/03/28 01:34:41;;;;;;;4.85;4.45;;;;;;;;;;5075101;28;20024;-54
2022/03/28 01:37:07;;;;;;;4.47;4.07;;;;;;;;;;5074039;28;20541;-52
2022/03/28 01:39:32;;;;;;;5.18;4.75;;;;;;;;;;5075877;28;20028;-52
2022/03/28 01:41:58;;;;;;;4.60;4.20;;;;;;;;;;5074531;28;20036;-54
2022/03/28 01:44:24;;;;;;;4.03;3.72;;;;;;;;;;5072136;28;20028;-53
2022/03/28 01:46:50;;;;;;;4.70;4.25;;;;;;;;;;5075420;28;20134;-53
2022/03/28 01:49:18;;;;;;;4.32;3.92;;;;;;;;;;5074468;28;20107;-52
2022/03/28 01:51:45;;;;;;;4.45;4.05;;;;;;;;;;5076566;28;20024;-53
2022/03/28 01:54:10;;;;;;;5.13;4.65;;;;;;;;;;5077326;28;20033;-54
2022/03/28 01:56:37;;;;;;;5.65;5.15;;;;;;;;;;5074091;28;20097;-52
2022/03/28 01:59:04;;;;;;;4.57;4.18;;;;;;;;;;5076042;28;20048;-54
2022/03/28 02:01:29;;;;;;;5.22;4.72;;;;;;;;;;5053848;28;20057;-55
2022/03/28 02:03:55;;;;;;;4.75;4.35;;;;;;;;;;5076791;28;20148;-54
2022/03/28 02:06:20;;;;;;;4.60;4.20;;;;;;;;;;5075317;28;20048;-53
2022/03/28 02:08:45;;;;;;;4.07;3.78;;;;;;;;;;5073499;28;20360;-53
2022/03/28 02:11:11;;;;;;;4.90;4.50;;;;;;;;;;5075632;28;20114;-51
2022/03/28 02:13:36;;;;;;;5.22;4.78;;;;;;;;;;5076778;28;20492;-51
2022/03/28 02:16:03;;;;;;;5.95;4.78;;;;;;;;;;5071445;28;20040;-52
2022/03/28 02:18:28;;;;;;;5.05;4.65;;;;;;;;;;5070009;28;20107;-48
2022/03/28 02:20:54;;;;;;;4.32;3.92;;;;;;;;;;5074475;28;20108;-54
2022/03/28 02:23:20;;;;;;;5.07;4.68;;;;;;;;;;5075100;28;20044;-53
2022/03/28 02:25:46;;;;;;;5.53;4.70;;;;;;;;;;5073179;28;20060;-54
2022/03/28 02:28:11;;;;;;;4.40;4.00;;;;;;;;;;5074457;28;20032;-51
2022/03/28 02:30:37;;;;;;;5.55;5.05;;;;;;;;;;5072234;28;20034;-53
2022/03/28 02:33:03;;;;;;;4.95;4.45;;;;;;;;;;5072038;28;20028;-51
2022/03/28 02:35:29;;;;;;;4.63;4.22;;;;;;;;;;5074507;28;20028;-52
2022/03/28 02:37:54;;;;;;;4.50;4.10;;;;;;;;;;5073624;28;20039;-51
2022/03/28 02:40:19;;;;;;;5.45;5.05;;;;;;;;;;5074495;28;20518;-52
2022/03/28 02:42:45;;;;;;;5.25;4.78;;;;;;;;;;5074801;28;20060;-50
2022/03/28 02:45:10;;;;;;;5.68;4.88;;;;;;;;;;5074344;28;20375;-53
2022/03/28 02:47:36;;;;;;;5.10;4.63;;;;;;;;;;5074305;28;20556;-52
2022/03/28 02:50:02;;;;;;;4.82;4.43;;;;;;;;;;5072563;28;20123;-50
2022/03/28 02:52:28;;;;;;;6.13;5.57;;;;;;;;;;5074538;28;20032;-53
2022/03/28 02:54:53;;;;;;;5.25;4.85;;;;;;;;;;5074603;28;20122;-52
2022/03/28 02:57:19;;;;;;;4.65;4.25;;;;;;;;;;5076639;28;20135;-50
2022/03/28 02:59:44;;;;;;;4.97;4.50;;;;;;;;;;5071571;28;20097;-52
2022/03/28 03:02:10;;;;;;;5.30;4.90;;;;;;;;;;5073479;28;20129;-49
2022/03/28 03:04:36;;;;;;;5.38;4.90;;;;;;;;;;5072445;28;20024;-50
2022/03/28 03:07:01;;;;;;;5.03;4.63;;;;;;;;;;5073764;28;20036;-51
2022/03/28 03:09:27;;;;;;;4.80;4.28;;;;;;;;;;5073750;28;20085;-52
2022/03/28 03:11:53;;;;;;;5.05;4.60;;;;;;;;;;5069374;28;20089;-49
2022/03/28 03:14:18;;;;;;;4.60;4.20;;;;;;;;;;5071449;28;20047;-53
2022/03/28 03:16:44;;;;;;;4.70;4.30;;;;;;;;;;5068023;28;20115;-52
2022/03/28 03:19:10;;;;;;;6.28;5.30;;;;;;;;;;5073496;28;20423;-52
2022/03/28 03:21:35;;;;;;;5.50;4.90;;;;;;;;;;5075554;28;20028;-51
2022/03/28 03:24:02;;;;;;;6.30;5.20;;;;;;;;;;5073160;28;20032;-52
2022/03/28 03:26:27;;;;;;;4.85;4.35;;;;;;;;;;5041371;28;20357;-53
2022/03/28 03:28:55;;;;;;;5.88;5.38;;;;;;;;;;5073549;28;20031;-50
2022/03/28 03:31:22;;;;;;;5.47;4.97;;;;;;;;;;5071459;28;20029;-52
2022/03/28 03:33:47;;;;;;;4.70;4.30;;;;;;;;;;5072299;28;20036;-50
2022/03/28 03:36:12;;;;;;;4.82;4.43;;;;;;;;;;5070951;28;20066;-50
2022/03/28 03:38:38;;;;;;;5.53;5.03;;;;;;;;;;5078300;28;20796;-53
2022/03/28 03:41:03;;;;;;;4.75;4.35;;;;;;;;;;5073831;28;20028;-52
2022/03/28 03:43:28;;;;;;;4.65;4.25;;;;;;;;;;5071801;28;20016;-50
2022/03/28 03:45:54;;;;;;;4.35;3.95;;;;;;;;;;5073223;28;20475;-49
2022/03/28 03:48:19;;;;;;;5.53;5.03;;;;;;;;;;5071510;28;20454;-54
2022/03/28 03:50:45;;;;;;;5.53;4.75;;;;;;;;;;5070177;28;20024;-53
2022/03/28 03:53:10;;;;;;;5.47;4.97;;;;;;;;;;5071401;28;20052;-52
2022/03/28 03:55:36;;;;;;;5.40;4.88;;;;;;;;;;5056996;28;20029;-50
2022/03/28 03:58:02;;;;;;;6.28;5.78;;;;;;;;;;5072332;28;20036;-52
2022/03/28 04:00:28;;;;;;;10.63;5.00;;;;;;;;;;5073077;28;20036;-54
2022/03/28 04:02:53;;;;;;;5.05;4.63;;;;;;;;;;5070771;28;20032;-53
2022/03/28 04:05:19;;;;;;;4.90;4.50;;;;;;;;;;5069099;28;20039;-53
2022/03/28 04:07:44;;;;;;;5.28;4.78;;;;;;;;;;5071745;28;20024;-54
2022/03/28 04:10:10;;;;;;;5.20;4.75;;;;;;;;;;5068723;28;20042;-53
2022/03/28 04:12:36;;;;;;;4.70;4.30;;;;;;;;;;5071254;28;20573;-54
2022/03/28 04:15:02;;;;;;;5.80;5.32;;;;;;;;;;5071788;28;20126;-52
2022/03/28 04:17:29;;;;;;;5.88;5.28;;;;;;;;;;5071230;28;20093;-51
2022/03/28 04:19:55;;;;;;;5.53;5.03;;;;;;;;;;5074082;28;20331;-53
2022/03/28 04:22:21;;;;;;;5.80;5.30;;;;;;;;;;5071207;28;20023;-53
2022/03/28 04:24:48;;;;;;;5.90;5.38;;;;;;;;;;5075207;28;20378;-54
2022/03/28 04:27:13;;;;;;;5.47;4.97;;;;;;;;;;5072696;28;20028;-50
2022/03/28 04:29:39;;;;;;;5.55;5.05;;;;;;;;;;5074527;28;20050;-50
2022/03/28 04:32:05;;;;;;;4.43;4.03;;;;;;;;;;5069463;28;20520;-50
2022/03/28 04:34:30;;;;;;;4.93;4.53;;;;;;;;;;5072156;28;20103;-50
2022/03/28 04:36:55;;;;;;;4.95;4.55;;;;;;;;;;5072806;28;20374;-50
2022/03/28 04:39:21;;;;;;;5.57;5.07;;;;;;;;;;5069270;28;20125;-50
2022/03/28 04:41:46;;;;;;;5.65;5.05;;;;;;;;;;5072761;28;20027;-50
2022/03/28 04:44:12;;;;;;;4.72;4.22;;;;;;;;;;5073845;28;20173;-50
2022/03/28 04:46:37;;;;;;;4.60;4.20;;;;;;;;;;5071446;28;20121;-49
2022/03/28 04:49:03;;;;;;;6.72;5.35;;;;;;;;;;5073768;28;20151;-50
2022/03/28 04:51:28;;;;;;;5.75;4.38;;;;;;;;;;5069098;28;20065;-50
2022/03/28 04:53:54;;;;;;;5.15;4.65;;;;;;;;;;5073196;28;20176;-51
2022/03/28 04:56:19;;;;;;;4.85;4.45;;;;;;;;;;5076489;28;20385;-50
2022/03/28 04:58:44;;;;;;;4.65;4.25;;;;;;;;;;5076969;28;20109;-51
2022/03/28 05:01:10;;;;;;;5.15;4.70;;;;;;;;;;5074800;28;20028;-54
2022/03/28 05:03:35;;;;;;;5.00;4.50;;;;;;;;;;5076166;28;20029;-52
2022/03/28 05:06:02;;;;;;;5.18;4.68;;;;;;;;;;5076658;28;20035;-50
2022/03/28 05:08:27;;;;;;;4.45;4.05;;;;;;;;;;5077860;28;20055;-52
2022/03/28 05:10:53;;;;;;;4.30;3.90;;;;;;;;;;5074785;28;20051;-51
2022/03/28 05:13:20;;;;;;;5.30;4.80;;;;;;;;;;5078986;28;20020;-52
2022/03/28 05:15:45;;;;;;;5.47;4.25;;;;;;;;;;5077770;28;20151;-52
2022/03/28 05:18:11;;;;;;;5.38;4.88;;;;;;;;;;5073933;28;20111;-53
2022/03/28 05:20:36;;;;;;;7.30;5.07;;;;;;;;;;5076389;28;20377;-53
2022/03/28 05:23:01;;;;;;;5.25;4.75;;;;;;;;;;5073317;28;20353;-51
2022/03/28 05:25:27;;;;;;;5.05;4.45;;;;;;;;;;5074206;28;20036;-51
2022/03/28 05:27:52;;;;;;;4.57;4.18;;;;;;;;;;5072402;28;20119;-51
2022/03/28 05:30:17;;;;;;;5.00;4.60;;;;;;;;;;5071352;28;20048;-53
2022/03/28 05:32:43;;;;;;;4.75;4.25;;;;;;;;;;5074560;28;20107;-53
2022/03/28 05:35:10;;;;;;;5.68;4.43;;;;;;;;;;5073952;28;20036;-50
2022/03/28 05:37:35;;;;;;;4.38;3.97;;;;;;;;;;5077281;28;20119;-53
2022/03/28 05:40:02;;;;;;;6.80;4.43;;;;;;;;;;5053048;28;20448;-51
2022/03/28 05:42:28;;;;;;;5.10;4.50;;;;;;;;;;5071052;28;20486;-52
2022/03/28 05:44:54;;;;;;;5.72;5.22;;;;;;;;;;5068482;28;20031;-54
2022/03/28 05:47:19;;;;;;;5.57;4.72;;;;;;;;;;5074810;28;20059;-50
2022/03/28 05:49:44;;;;;;;5.13;4.68;;;;;;;;;;5075432;28;20494;-51
2022/03/28 05:52:10;;;;;;;5.40;3.83;;;;;;;;;;5073794;28;20023;-51
2022/03/28 05:54:36;;;;;;;5.85;5.35;;;;;;;;;;5071708;28;20025;-54
2022/03/28 05:57:01;;;;;;;5.88;5.38;;;;;;;;;;5069645;28;20038;-51
2022/03/28 05:59:27;;;;;;;6.13;4.90;;;;;;;;;;5074604;28;20032;-50
2022/03/28 06:01:52;;;;;;;4.68;4.28;;;;;;;;;;5070678;28;20028;-50
2022/03/28 06:04:18;;;;;;;5.53;5.03;;;;;;;;;;5074859;28;20036;-54
2022/03/28 06:06:43;;;;;;;4.35;3.95;;;;;;;;;;5075179;28;20024;-54
2022/03/28 06:09:09;;;;;;;5.88;4.85;;;;;;;;;;5075846;28;20419;-53
2022/03/28 06:11:35;;;;;;;7.63;5.35;;;;;;;;;;5070986;28;20035;-53
2022/03/28 06:14:01;;;;;;;4.63;4.22;;;;;;;;;;5074592;28;20028;-49
2022/03/28 06:16:26;;;;;;;6.00;4.93;;;;;;;;;;5072513;28;20035;-54
2022/03/28 06:18:52;;;;;;;5.90;5.30;;;;;;;;;;5075722;28;20028;-50
2022/03/28 06:21:18;;;;;;;5.70;5.20;;;;;;;;;;5076176;28;20524;-50
2022/03/28 06:23:44;;;;;;;4.90;4.50;;;;;;;;;;5076127;28;20021;-52
2022/03/28 06:26:12;;;;;;;6.18;5.60;;;;;;;;;;5070485;28;20575;-51
2022/03/28 06:28:40;;;;;;;5.00;4.60;;;;;;;;;;5072315;28;20032;-52
2022/03/28 06:31:06;;;;;;;4.57;4.18;;;;;;;;;;5071874;28;20040;-49
2022/03/28 06:33:32;;;;;;;4.65;4.25;;;;;;;;;;5072216;28;20074;-53
2022/03/28 06:35:58;;;;;;;5.00;4.60;;;;;;;;;;5069352;28;20059;-53
2022/03/28 06:38:23;;;;;;;5.57;5.15;;;;;;;;;;5074423;28;20078;-52
2022/03/28 06:40:48;;;;;;;6.25;5.22;;;;;;;;;;5069933;28;20036;-53
2022/03/28 06:43:14;;;;;;;5.60;5.18;;;;;;;;;;5077952;28;20119;-50
2022/03/28 06:45:40;;;;;;;5.63;5.15;;;;;;;;;;5070673;28;20024;-51
2022/03/28 06:48:06;;;;;;;5.15;4.70;;;;;;;;;;5072732;28;20066;-53
2022/03/28 06:50:33;;;;;;;5.40;5.00;;;;;;;;;;5074388;28;20058;-54
2022/03/28 06:52:59;;;;;;;6.25;5.50;;;;;;;;;;5075625;28;20044;-53
2022/03/28 06:55:24;;;;;;;5.63;5.13;;;;;;;;;;5072188;28;20219;-54
2022/03/28 06:57:51;;;;;;;5.47;4.97;;;;;;;;;;5072465;28;20028;-52
2022/03/28 07:00:17;;;;;;;5.45;4.95;;;;;;;;;;5070202;28;20037;-50
2022/03/28 07:02:43;;;;;;;5.45;4.95;;;;;;;;;;5070860;28;20096;-52
2022/03/28 07:05:09;;;;;;;5.18;4.75;;;;;;;;;;5070266;28;20032;-50
2022/03/28 07:07:42;;;;;;;5.38;4.55;;;;;;;;;;5072399;28;20029;-52
2022/03/28 07:10:09;;;;;;;5.60;5.10;;;;;;;;;;5070749;28;20154;-50
2022/03/28 07:12:35;;;;;;;5.53;5.03;;;;;;;;;;5066987;28;20041;-51
2022/03/28 07:15:00;;;;;;;4.28;3.88;;;;;;;;;;5070884;28;20035;-52
2022/03/28 07:17:25;;;;;;;5.47;4.97;;;;;;;;;;5069199;28;20141;-55
2022/03/28 07:19:51;;;;;;;5.22;4.78;;;;;;;;;;5072594;28;20445;-52
2022/03/28 07:22:16;;;;;;;5.28;4.78;;;;;;;;;;5072820;28;20035;-52
2022/03/28 07:24:42;;;;;;;5.00;4.50;;;;;;;;;;5071062;28;20039;-51
2022/03/28 07:27:10;;;;;;;6.05;5.45;;;;;;;;;;5070649;28;20126;-55
2022/03/28 07:29:36;;;;;;;4.75;4.35;;;;;;;;;;5071053;28;20071;-55
2022/03/28 07:32:01;;;;;;;5.55;5.05;;;;;;;;;;5069318;28;20481;-54
2022/03/28 07:34:29;;;;;;;5.40;4.95;;;;;;;;;;5067400;28;20021;-53
2022/03/28 07:36:55;;;;;;;6.10;5.60;;;;;;;;;;5069893;28;20029;-56
2022/03/28 07:39:22;;;;;;;10.50;6.55;;;;;;;;;;5068329;28;20028;-56
2022/03/28 07:41:48;;;;;;;6.63;6.13;;;;;;;;;;5070983;28;20081;-56
2022/03/28 07:44:14;;;;;;;5.68;5.20;;;;;;;;;;5067099;28;20024;-56
2022/03/28 07:46:41;;;;;;;6.28;5.78;;;;;;;;;;5059609;28;20081;-52
2022/03/28 07:49:09;;;;;;;6.25;5.75;;;;;;;;;;5068828;28;20032;-51
2022/03/28 07:51:35;;;;;;;6.57;6.07;;;;;;;;;;5070769;28;20107;-52
2022/03/28 07:54:01;;;;;;;5.65;5.25;;;;;;;;;;5071889;28;20115;-51
2022/03/28 07:56:26;;;;;;;5.90;5.43;;;;;;;;;;5069465;28;20106;-54
2022/03/28 07:58:51;;;;;;;6.50;6.00;;;;;;;;;;5070610;28;20064;-55
2022/03/28 08:01:17;;;;;;;6.90;6.32;;;;;;;;;;5069155;28;20028;-52
2022/03/28 08:03:42;;;;;;;6.18;5.68;;;;;;;;;;5073531;28;20081;-53
2022/03/28 08:06:08;;;;;;;7.15;6.60;;;;;;;;;;5070157;28;20025;-54
2022/03/28 08:08:35;;;;;;;5.60;5.10;;;;;;;;;;5070309;28;20365;-53
2022/03/28 08:11:01;;;;;;;6.30;5.05;;;;;;;;;;5072246;28;20122;-55
2022/03/28 08:13:26;;;;;;;6.47;5.97;;;;;;;;;;5075721;28;21004;-56
2022/03/28 08:15:51;;;;;;;7.05;6.55;;;;;;;;;;5067409;28;20042;-56
2022/03/28 08:18:17;;;;;;;7.18;6.57;;;;;;;;;;5068382;28;20032;-56
2022/03/28 08:20:43;;;;;;;6.07;5.57;;;;;;;;;;5069875;28;20040;-55
2022/03/28 08:23:09;;;;;;;7.28;5.72;;;;;;;;;;5066703;28;20032;-56
2022/03/28 08:25:35;;;;;;;6.97;6.35;;;;;;;;;;5068264;28;20195;-56
2022/03/28 08:28:01;;;;;;;6.25;5.65;;;;;;;;;;5068492;28;20031;-56
2022/03/28 08:30:27;;;;;;;6.60;6.05;;;;;;;;;;5069363;28;20055;-56
2022/03/28 08:32:54;;;;;;;7.75;6.95;;;;;;;;;;5070788;28;20028;-57
2022/03/28 08:35:21;;;;;;;7.53;6.88;;;;;;;;;;5073585;28;20027;-55
2022/03/28 08:37:46;;;;;;;7.30;6.60;;;;;;;;;;5071850;28;20046;-56
2022/03/28 08:40:14;;;;;;;7.68;7.07;;;;;;;;;;5070839;28;20130;-55
2022/03/28 08:42:40;;;;;;;6.70;6.20;;;;;;;;;;5070280;28;20036;-57
2022/03/28 08:45:07;;;;;;;7.40;6.90;;;;;;;;;;5071678;28;20611;-56
2022/03/28 08:47:34;;;;;;;8.30;7.60;;;;;;;;;;5069993;28;20040;-55
2022/03/28 08:49:59;;;;;;;7.38;6.75;;;;;;;;;;5072406;28;20050;-55
2022/03/28 08:52:25;;;;;;;6.10;5.60;;;;;;;;;;5072638;28;20036;-55
2022/03/28 08:54:51;;;;;;;7.18;6.47;;;;;;;;;;5071018;28;20525;-54
2022/03/28 08:57:17;;;;;;;7.00;6.43;;;;;;;;;;5073519;28;20096;-55
2022/03/28 08:59:42;;;;;;;8.25;7.53;;;;;;;;;;5071369;28;20028;-57
2022/03/28 09:02:33;;;;;;;6.95;6.45;;;;;;;;;;5070925;28;22764;-57
2022/03/28 09:04:59;;;;;;;8.15;7.55;;;;;;;;;;5074810;28;20040;-56
2022/03/28 09:07:26;;;;;;;7.88;7.28;;;;;;;;;;5076519;28;20020;-50
2022/03/28 09:10:18;;;;;;;8.18;7.47;;;;;;;;;;5073771;28;20043;-55
2022/03/28 09:13:04;;;;;;;7.47;6.78;;;;;;;;;;5067540;28;20477;-53
2022/03/28 09:15:55;;;;;;;10.07;9.27;;;;;;;;;;5075356;28;20070;-55
2022/03/28 09:18:26;;;;;;;8.63;7.97;;;;;;;;;;5059455;28;20045;-55
2022/03/28 09:21:06;;;;;;;7.78;7.28;;;;;;;;;;5072583;28;20465;-52
2022/03/28 09:23:59;;;;;;;9.37;8.67;;;;;;;;;;5076921;28;20480;-52
2022/03/28 09:26:25;;;;;;;7.93;7.38;;;;;;;;;;5074015;28;20397;-54
2022/03/28 09:28:56;;;;;;;8.95;8.15;;;;;;;;;;5073506;28;20111;-54
2022/03/28 09:31:32;;;;;;;8.07;7.47;;;;;;;;;;5073564;28;20028;-53
2022/03/28 09:34:17;;;;;;;9.13;8.40;;;;;;;;;;5070815;28;20107;-53
2022/03/28 09:36:54;;;;;;;8.10;7.43;;;;;;;;;;5075027;28;20054;-54
2022/03/28 09:39:24;;;;;;;9.05;8.45;;;;;;;;;;5074752;28;20039;-54
2022/03/28 09:42:10;;;;;;;9.55;8.85;;;;;;;;;;5070410;28;20040;-54
2022/03/28 09:44:39;;;;;;;9.10;8.35;;;;;;;;;;5072878;28;20025;-53
2022/03/28 09:47:05;;;;;;;8.98;8.38;;;;;;;;;;5068231;28;20198;-53
2022/03/28 09:49:31;;;;;;;9.27;8.57;;;;;;;;;;5072386;28;20043;-54
2022/03/28 09:52:11;;;;;;;8.90;8.20;;;;;;;;;;5071907;28;20043;-55
2022/03/28 09:54:51;;;;;;;8.18;7.38;;;;;;;;;;5074902;28;20029;-54
2022/03/28 09:57:25;;;;;;;8.70;8.00;;;;;;;;;;5075114;28;20036;-55
2022/03/28 09:59:52;;;;;;;7.45;6.78;;;;;;;;;;5075229;28;20090;-55
2022/03/28 10:02:23;;;;;;;7.40;6.85;;;;;;;;;;5070920;28;20089;-53
2022/03/28 10:04:51;;;;;;;7.10;6.60;;;;;;;;;;5076444;28;20120;-50
2022/03/28 10:07:18;;;;;;;8.57;7.72;;;;;;;;;;5073343;28;20020;-54
2022/03/28 10:09:43;;;;;;;7.35;6.70;;;;;;;;;;5076959;28;20450;-55
2022/03/28 10:12:09;;;;;;;7.07;6.57;;;;;;;;;;5073002;28;20082;-54
2022/03/28 10:14:36;;;;;;;7.10;6.50;;;;;;;;;;5073164;28;20032;-54
2022/03/28 10:17:04;;;;;;;6.97;6.38;;;;;;;;;;5071155;28;20041;-55
2022/03/28 10:19:32;;;;;;;8.25;7.63;;;;;;;;;;5072843;28;20021;-54
2022/03/28 10:22:02;;;;;;;7.70;7.10;;;;;;;;;;5071576;28;20112;-55
2022/03/28 10:24:30;;;;;;;6.57;6.07;;;;;;;;;;5072381;28;20025;-54
2022/03/28 10:26:57;;;;;;;8.25;6.22;;;;;;;;;;5070484;28;20043;-53
2022/03/28 10:29:23;;;;;;;6.68;6.15;;;;;;;;;;5074904;28;20113;-53
2022/03/28 10:32:00;;;;;;;7.35;6.65;;;;;;;;;;5072957;28;20137;-54
2022/03/28 10:34:52;;;;;;;6.35;5.82;;;;;;;;;;5073352;28;20055;-55
2022/03/28 10:37:23;;;;;;;7.15;6.55;;;;;;;;;;5071761;28;20086;-55
2022/03/28 10:39:49;;;;;;;7.57;6.88;;;;;;;;;;5073796;28;20044;-54
2022/03/28 10:42:24;;;;;;;7.60;6.82;;;;;;;;;;5074783;28;20028;-55
2022/03/28 10:45:05;;;;;;;8.32;6.32;;;;;;;;;;5074652;28;20040;-55
2022/03/28 10:47:52;;;;;;;7.15;6.57;;;;;;;;;;5072248;28;20046;-53
2022/03/28 10:50:24;;;;;;;7.25;6.65;;;;;;;;;;5073587;28;20131;-54
2022/03/28 10:53:09;;;;;;;7.78;6.97;;;;;;;;;;5074570;28;20045;-53
2022/03/28 10:55:38;;;;;;;7.28;6.68;;;;;;;;;;5073263;28;20108;-54
2022/03/28 10:58:16;;;;;;;7.05;6.45;;;;;;;;;;5072628;28;20035;-53
2022/03/28 11:01:11;;;;;;;6.97;6.32;;;;;;;;;;5070046;28;20508;-55
2022/03/28 11:03:40;;;;;;;6.82;6.15;;;;;;;;;;5069641;28;20032;-53
2022/03/28 11:06:06;;;;;;;8.25;7.55;;;;;;;;;;5071173;28;20043;-48
2022/03/28 11:08:39;;;;;;;8.55;7.95;;;;;;;;;;5069972;28;20876;-54
2022/03/28 11:11:22;;;;;;;9.48;7.72;;;;;;;;;;5067784;28;20545;-53
2022/03/28 11:14:01;;;;;;;9.90;9.10;;;;;;;;;;5073833;28;20109;-53
2022/03/28 11:16:53;;;;;;;10.63;9.93;;;;;;;;;;5069232;28;20039;-55
2022/03/28 11:19:33;;;;;;;11.90;11.00;;;;;;;;;;5070024;28;20068;-55
2022/03/28 11:22:04;;;;;;;12.60;11.80;;;;;;;;;;5071933;28;20494;-57
2022/03/28 11:24:54;;;;;;;12.38;11.48;;;;;;;;;;5071914;28;20452;-54
2022/03/28 11:27:21;;;;;;;11.43;10.73;;;;;;;;;;5057307;28;20020;-56
2022/03/28 11:29:48;;;;;;;14.45;13.43;;;;;;;;;;5073552;28;20049;-54
2022/03/28 11:32:18;;;;;;;17.15;16.05;;;;;;;;;;5070692;28;20035;-54
2022/03/28 11:34:52;;;;;;;18.02;16.95;;;;;;;;;;5070273;28;20032;-55
2022/03/28 11:37:21;;;;;;;18.92;17.85;;;;;;;;;;5071054;28;20381;-53
2022/03/28 11:39:57;;;;;;;18.17;17.13;;;;;;;;;;5071686;28;20123;-51
2022/03/28 11:42:28;;;;;;;21.65;20.38;;;;;;;;;;5075362;28;20048;-52
2022/03/28 11:44:54;;;;;;;20.35;19.17;;;;;;;;;;5074541;28;20051;-53
2022/03/28 11:47:20;;;;;;;20.70;19.55;;;;;;;;;;5072766;28;20135;-54
2022/03/28 11:49:51;;;;;;;23.88;22.33;;;;;;;;;;5074463;28;20032;-55
2022/03/28 11:52:20;;;;;;;23.00;21.42;;;;;;;;;;5070487;28;20032;-54
2022/03/28 11:54:46;;;;;;;18.48;17.38;;;;;;;;;;5073252;28;20032;-52
2022/03/28 12:00:21;;;;;;;18.38;17.25;;;;;;;;;;5076145;28;20032;-55
2022/03/28 12:02:51;;;;;;;;;;;;;;;;;;5073974;28;20037;-55
2022/03/28 12:05:28;;;;;;;14.57;13.57;;;;;;;;;;5078521;28;19912;-53
2022/03/28 12:07:54;;;;;;;16.05;14.85;;;;;;;;;;5078464;28;20111;-52
2022/03/28 12:10:28;;;;;;;15.50;14.55;;;;;;;;;;5075334;28;20066;-53
2022/03/28 12:12:54;;;;;;;16.00;14.98;;;;;;;;;;5075637;28;20082;-53
2022/03/28 12:15:24;;;;;;;16.60;15.57;;;;;;;;;;5075903;28;20028;-54
2022/03/28 12:17:54;;;;;;;17.95;16.95;;;;;;;;;;5077919;28;20035;-55
2022/03/28 12:20:26;;;;;;;15.27;14.38;;;;;;;;;;5077496;28;20025;-53
2022/03/28 12:22:52;;;;;;;16.58;15.57;;;;;;;;;;5073574;28;20032;-55
2022/03/28 12:25:24;;;;;;;16.92;15.85;;;;;;;;;;5078231;28;20024;-55
2022/03/28 12:27:52;;;;;;;14.23;13.32;;;;;;;;;;5075930;28;20039;-51
2022/03/28 12:30:18;;;;;;;15.73;14.73;;;;;;;;;;5075441;28;20036;-53
2022/03/28 12:32:44;;;;;;;16.80;15.80;;;;;;;;;;5072491;28;20094;-54
2022/03/28 12:35:09;;;;;;;17.10;16.02;;;;;;;;;;5078400;28;20038;-54
2022/03/28 12:37:36;;;;;;;16.50;15.50;;;;;;;;;;5074013;28;20032;-55
2022/03/28 12:40:01;;;;;;;14.13;13.25;;;;;;;;;;5072954;28;20059;-55
2022/03/28 12:42:28;;;;;;;17.50;16.40;;;;;;;;;;5074221;28;20382;-56
2022/03/28 12:44:54;;;;;;;16.35;15.35;;;;;;;;;;5078359;28;20037;-55
2022/03/28 12:47:20;;;;;;;14.63;13.73;;;;;;;;;;5072684;28;20038;-54
2022/03/28 12:49:45;;;;;;;14.82;13.93;;;;;;;;;;5075983;28;20040;-51
2022/03/28 12:52:14;;;;;;;13.90;13.00;;;;;;;;;;5081208;28;20024;-56
2022/03/28 12:54:42;;;;;;;17.30;16.20;;;;;;;;;;5074079;28;20024;-54
2022/03/28 12:57:08;;;;;;;15.43;14.43;;;;;;;;;;5072929;28;20043;-56
2022/03/28 12:59:34;;;;;;;15.88;14.95;;;;;;;;;;5075886;28;20044;-50
2022/03/28 13:02:10;;;;;;;14.02;13.13;;;;;;;;;;5072789;28;20047;-52
2022/03/28 13:04:43;;;;;;;13.68;12.85;;;;;;;;;;5074554;28;20035;-52
2022/03/28 13:07:10;;;;;;;13.13;12.30;;;;;;;;;;5073480;28;20051;-52
2022/03/28 13:09:36;;;;;;;16.65;15.40;;;;;;;;;;5076119;28;20476;-52
2022/03/28 13:12:09;;;;;;;22.52;21.25;;;;;;;;;;5072804;28;20033;-51
2022/03/28 13:14:38;;;;;;;44.63;41.58;;;;;;;;;;5075427;28;20021;-58
2022/03/28 13:17:08;;;;;;;17.33;16.33;;;;;;;;;;5072395;28;20032;-50
2022/03/28 13:19:35;;;;;;;12.95;10.90;;;;;;;;;;5071291;28;20029;-54
2022/03/28 13:22:01;;;;;;;11.80;10.90;;;;;;;;;;5071248;28;20029;-51
2022/03/28 13:24:28;;;;;;;13.57;12.77;;;;;;;;;;5075066;28;20028;-51
2022/03/28 13:28:01;;;;;;;11.82;11.07;;;;;;;;;;5078251;28;20032;-50
2022/03/28 13:29:40;;;;;;;11.23;10.52;;;;;;;;;;5073914;28;20048;-57
2022/03/28 13:32:06;;;;;;;11.38;10.68;;;;;;;;;;5072936;28;20082;-50
2022/03/28 13:34:31;;;;;;;11.75;10.95;;;;;;;;;;5074523;28;20542;-51
2022/03/28 13:36:58;;;;;;;14.38;13.18;;;;;;;;;;5073787;28;20067;-51
2022/03/28 13:39:23;;;;;;;15.68;14.73;;;;;;;;;;5071278;28;20067;-52
2022/03/28 13:41:49;;;;;;;13.90;12.90;;;;;;;;;;5074391;28;20627;-53
2022/03/28 13:44:15;;;;;;;15.18;12.00;;;;;;;;;;5070790;28;20028;-56
2022/03/28 13:46:41;;;;;;;11.73;10.85;;;;;;;;;;5064212;28;20072;-56
2022/03/28 13:49:07;;;;;;;13.48;10.98;;;;;;;;;;5064571;28;20056;-56
2022/03/28 13:51:34;;;;;;;10.32;9.63;;;;;;;;;;5069746;28;20029;-55
2022/03/28 13:54:01;;;;;;;10.75;10.07;;;;;;;;;;5072813;28;20044;-56
2022/03/28 13:56:27;;;;;;;13.05;12.15;;;;;;;;;;5070620;28;20633;-54
2022/03/28 13:58:52;;;;;;;13.02;12.10;;;;;;;;;;5071639;28;20036;-53
2022/03/28 14:01:18;;;;;;;13.15;12.15;;;;;;;;;;5071412;28;20071;-55
2022/03/28 14:03:44;;;;;;;11.90;11.13;;;;;;;;;;5069540;28;20028;-54
2022/03/28 14:06:09;;;;;;;11.05;10.25;;;;;;;;;;5067901;28;20029;-51
2022/03/28 14:08:36;;;;;;;11.00;10.30;;;;;;;;;;5074168;28;20029;-55
2022/03/28 14:11:08;;;;;;;11.70;10.90;;;;;;;;;;5070743;28;20178;-49
2022/03/28 14:13:34;;;;;;;12.10;11.30;;;;;;;;;;5076674;28;20048;-55
2022/03/28 14:16:01;;;;;;;13.52;12.23;;;;;;;;;;5068592;28;20058;-50
2022/03/28 14:18:27;;;;;;;12.48;11.57;;;;;;;;;;5074127;28;20032;-51
2022/03/28 14:20:52;;;;;;;12.23;11.32;;;;;;;;;;5071030;28;20025;-53
2022/03/28 14:23:19;;;;;;;11.75;10.70;;;;;;;;;;5076560;28;20028;-48
2022/03/28 14:25:45;;;;;;;11.10;10.20;;;;;;;;;;5071727;28;20059;-53
2022/03/28 14:28:11;;;;;;;10.10;9.40;;;;;;;;;;5075506;28;20057;-52
2022/03/28 14:30:37;;;;;;;10.23;9.45;;;;;;;;;;5071453;28;20032;-53
2022/03/28 14:33:04;;;;;;;8.98;8.35;;;;;;;;;;5077161;28;20448;-54
2022/03/28 14:35:31;;;;;;;9.82;8.93;;;;;;;;;;5072595;28;20506;-55
2022/03/28 14:37:58;;;;;;;9.00;8.38;;;;;;;;;;5069645;28;20062;-52
2022/03/28 14:40:24;;;;;;;9.57;8.98;;;;;;;;;;5073036;28;20093;-54
2022/03/28 14:42:50;;;;;;;9.25;8.55;;;;;;;;;;5075917;28;20032;-54
2022/03/28 14:45:19;;;;;;;8.95;8.32;;;;;;;;;;5071612;28;20016;-54
2022/03/28 14:47:46;;;;;;;9.32;8.73;;;;;;;;;;5068805;28;20108;-54